createdAt,value
2022-08-19T00:01:29.230Z,17.20
2022-08-19T00:04:30.405Z,17.00
2022-08-19T00:07:25.245Z,16.90
2022-08-19T00:10:21.551Z,16.90
2022-08-19T00:13:17.317Z,16.70
2022-08-19T00:16:12.119Z,16.60
2022-08-19T00:19:07.518Z,16.60
2022-08-19T00:22:02.263Z,16.50
2022-08-19T00:24:58.144Z,16.50
2022-08-19T00:27:56.837Z,16.40
2022-08-19T00:30:51.405Z,16.30
2022-08-19T00:33:47.316Z,16.30
2022-08-19T00:36:43.225Z,16.30
2022-08-19T00:39:38.225Z,16.30
2022-08-19T00:42:32.898Z,16.30
2022-08-19T00:45:33.035Z,16.30
2022-08-19T00:48:31.666Z,16.30
2022-08-19T00:51:28.790Z,16.40
2022-08-19T00:54:28.870Z,16.30
2022-08-19T00:57:38.452Z,16.30
2022-08-19T01:00:38.744Z,16.40
2022-08-19T01:03:57.104Z,16.40
2022-08-19T01:06:47.783Z,16.40
2022-08-19T01:09:44.074Z,16.40
2022-08-19T01:12:39.166Z,16.40
2022-08-19T01:15:37.947Z,16.50
2022-08-19T01:18:33.608Z,16.50
2022-08-19T01:22:00.227Z,16.60
2022-08-19T01:25:15.129Z,16.70
2022-08-19T01:28:11.279Z,16.80
2022-08-19T01:31:07.908Z,16.80
2022-08-19T01:34:04.029Z,16.80
2022-08-19T01:36:58.533Z,16.90
2022-08-19T01:39:53.407Z,17.10
2022-08-19T01:42:48.159Z,17.10
2022-08-19T01:45:43.420Z,17.20
2022-08-19T01:48:43.960Z,17.20
2022-08-19T01:51:40.163Z,17.20
2022-08-19T01:54:35.193Z,17.30
2022-08-19T01:57:29.965Z,17.30
2022-08-19T02:00:26.620Z,17.30
2022-08-19T02:03:21.196Z,17.40
2022-08-19T02:06:16.094Z,17.50
2022-08-19T02:09:11.466Z,17.60
2022-08-19T02:12:07.675Z,17.80
2022-08-19T02:15:04.251Z,17.80
2022-08-19T02:17:58.793Z,17.90
2022-08-19T02:20:53.553Z,17.80
2022-08-19T02:23:48.773Z,17.80
2022-08-19T02:26:43.316Z,17.80
2022-08-19T02:29:39.179Z,17.80
2022-08-19T02:32:34.513Z,18.00
2022-08-19T02:35:38.740Z,17.90
2022-08-19T02:38:34.610Z,17.90
2022-08-19T02:41:33.057Z,18.00
2022-08-19T02:44:31.119Z,18.10
2022-08-19T02:47:26.439Z,18.20
2022-08-19T02:50:21.108Z,18.20
2022-08-19T02:53:16.911Z,18.10
2022-08-19T02:56:14.507Z,18.10
2022-08-19T02:59:13.272Z,18.20
2022-08-19T03:02:07.993Z,18.20
2022-08-19T03:05:03.905Z,18.10
2022-08-19T03:07:58.411Z,17.90
2022-08-19T03:10:54.313Z,17.80
2022-08-19T03:13:51.229Z,17.80
2022-08-19T03:16:49.519Z,17.70
2022-08-19T03:19:45.274Z,17.70
2022-08-19T03:22:39.782Z,17.70
2022-08-19T03:25:39.490Z,17.70
2022-08-19T03:28:34.885Z,17.80
2022-08-19T03:31:44.794Z,17.80
2022-08-19T03:34:44.761Z,17.80
2022-08-19T03:37:39.287Z,17.70
2022-08-19T03:40:39.220Z,17.70
2022-08-19T03:43:33.731Z,17.70
2022-08-19T03:46:34.433Z,17.60
2022-08-19T03:49:31.603Z,17.70
2022-08-19T03:52:26.648Z,17.70
2022-08-19T03:55:21.815Z,17.80
2022-08-19T03:58:16.477Z,17.70
2022-08-19T04:01:14.051Z,17.70
2022-08-19T04:04:09.463Z,17.50
2022-08-19T04:07:04.168Z,17.50
2022-08-19T04:09:58.689Z,17.50
2022-08-19T04:12:53.618Z,17.50
2022-08-19T04:15:48.981Z,17.50
2022-08-19T04:18:44.877Z,17.40
2022-08-19T04:21:39.555Z,17.40
2022-08-19T04:24:34.736Z,17.50
2022-08-19T04:27:29.238Z,17.40
2022-08-19T04:30:24.014Z,17.40
2022-08-19T04:33:24.029Z,17.20
2022-08-19T04:36:32.556Z,17.20
2022-08-19T04:39:51.524Z,17.30
2022-08-19T04:42:53.464Z,17.30
2022-08-19T04:45:49.417Z,17.40
2022-08-19T04:48:49.527Z,17.50
2022-08-19T04:51:46.378Z,17.60
2022-08-19T04:54:41.061Z,17.60
2022-08-19T04:57:35.749Z,17.60
2022-08-19T05:00:30.350Z,17.60
2022-08-19T05:03:27.591Z,17.70
2022-08-19T05:06:27.777Z,17.80
2022-08-19T05:09:23.426Z,17.70
2022-08-19T05:12:18.482Z,17.70
2022-08-19T05:15:13.350Z,17.70
2022-08-19T05:18:26.098Z,17.70
2022-08-19T05:21:40.957Z,17.70
2022-08-19T05:24:51.239Z,17.70
2022-08-19T05:27:51.864Z,17.70
2022-08-19T05:30:47.762Z,17.50
2022-08-19T05:33:42.627Z,17.50
2022-08-19T05:36:44.152Z,17.40
2022-08-19T05:39:40.505Z,17.30
2022-08-19T05:42:35.329Z,17.40
2022-08-19T05:45:30.107Z,17.40
2022-08-19T05:48:24.663Z,17.30
2022-08-19T05:51:19.565Z,17.30
2022-08-19T05:54:15.650Z,17.30
2022-08-19T05:57:12.077Z,17.40
2022-08-19T06:00:12.897Z,17.30
2022-08-19T06:03:12.546Z,17.20
2022-08-19T06:06:10.100Z,17.20
2022-08-19T06:09:07.163Z,17.20
2022-08-19T06:12:03.454Z,17.20
2022-08-19T06:15:01.239Z,17.20
2022-08-19T06:17:56.437Z,17.10
2022-08-19T06:20:55.742Z,17.10
2022-08-19T06:23:53.163Z,17.10
2022-08-19T06:29:49.093Z,17.10
2022-08-19T06:32:43.803Z,17.00
2022-08-19T06:35:43.077Z,17.00
2022-08-19T06:38:37.832Z,16.90
2022-08-19T06:41:33.432Z,16.80
2022-08-19T06:44:30.473Z,16.80
2022-08-19T06:47:28.620Z,16.80
2022-08-19T06:50:25.072Z,16.70
2022-08-19T06:53:21.442Z,16.60
2022-08-19T06:56:23.138Z,16.60
2022-08-19T06:59:21.822Z,16.50
2022-08-19T07:05:16.334Z,16.40
2022-08-19T07:08:12.499Z,16.40
2022-08-19T07:11:12.264Z,16.40
2022-08-19T07:14:18.922Z,16.40
2022-08-19T07:17:15.178Z,16.40
2022-08-19T07:20:12.221Z,16.40
2022-08-19T07:23:07.143Z,16.40
2022-08-19T07:26:07.403Z,16.30
2022-08-19T07:29:03.861Z,16.30
2022-08-19T07:32:00.979Z,16.20
2022-08-19T07:34:56.525Z,16.30
2022-08-19T07:37:51.738Z,16.20
2022-08-19T07:40:48.408Z,16.20
2022-08-19T07:43:43.282Z,16.10
2022-08-19T07:46:40.698Z,16.00
2022-08-19T07:49:35.863Z,16.00
2022-08-19T07:52:30.509Z,16.00
2022-08-19T07:55:40.702Z,16.10
2022-08-19T07:58:42.397Z,16.00
2022-08-19T08:01:41.769Z,16.00
2022-08-19T08:04:54.695Z,16.00
2022-08-19T08:08:07.265Z,16.00
2022-08-19T08:11:02.563Z,16.00
2022-08-19T08:14:04.733Z,16.00
2022-08-19T08:17:01.076Z,16.00
2022-08-19T08:19:56.900Z,16.00
2022-08-19T08:23:09.854Z,15.90
2022-08-19T08:26:05.135Z,15.90
2022-08-19T08:28:59.774Z,15.80
2022-08-19T08:31:58.444Z,15.80
2022-08-19T08:34:56.399Z,15.80
2022-08-19T08:37:53.705Z,15.90
2022-08-19T08:40:58.596Z,15.90
2022-08-19T08:43:55.846Z,15.80
2022-08-19T08:46:52.880Z,15.80
2022-08-19T08:50:04.030Z,15.80
2022-08-19T08:53:00.943Z,15.70
2022-08-19T08:55:55.784Z,15.60
2022-08-19T08:59:09.942Z,15.60
2022-08-19T09:02:04.729Z,15.60
2022-08-19T09:04:59.344Z,15.60
2022-08-19T09:08:07.211Z,15.70
2022-08-19T09:11:02.727Z,15.60
2022-08-19T09:14:15.767Z,15.70
2022-08-19T09:17:29.710Z,15.70
2022-08-19T09:20:26.829Z,15.60
2022-08-19T09:23:26.609Z,15.70
2022-08-19T09:26:24.031Z,15.70
2022-08-19T09:29:31.661Z,15.70
2022-08-19T09:32:28.268Z,15.70
2022-08-19T09:35:25.680Z,15.70
2022-08-19T09:38:23.914Z,15.70
2022-08-19T09:41:22.270Z,15.70
2022-08-19T09:44:18.904Z,15.70
2022-08-19T09:47:16.482Z,15.60
2022-08-19T09:50:16.317Z,15.60
2022-08-19T09:53:11.283Z,15.60
2022-08-19T09:56:08.308Z,15.60
2022-08-19T09:59:06.230Z,15.60
2022-08-19T10:02:03.682Z,15.60
2022-08-19T10:05:16.716Z,15.50
2022-08-19T10:08:20.686Z,15.50
2022-08-19T10:11:28.021Z,15.50
2022-08-19T10:14:33.744Z,15.50
2022-08-19T10:17:31.615Z,15.50
2022-08-19T10:20:28.263Z,15.50
2022-08-19T10:23:23.852Z,15.50
2022-08-19T10:26:24.627Z,15.50
2022-08-19T10:29:33.034Z,15.50
2022-08-19T10:32:34.046Z,15.50
2022-08-19T10:35:30.703Z,15.60
2022-08-19T10:38:38.407Z,15.60
2022-08-19T10:41:36.516Z,15.60
2022-08-19T10:44:32.751Z,15.60
2022-08-19T10:47:31.755Z,15.60
2022-08-19T10:50:44.722Z,15.70
2022-08-19T10:53:39.567Z,15.60
2022-08-19T10:56:54.199Z,15.60
2022-08-19T10:59:49.752Z,15.60
2022-08-19T11:02:44.479Z,15.60
2022-08-19T11:05:40.858Z,15.70
2022-08-19T11:08:37.452Z,15.70
2022-08-19T11:11:32.414Z,15.60
2022-08-19T11:14:27.623Z,15.60
2022-08-19T11:17:26.819Z,15.60
2022-08-19T11:20:21.706Z,15.50
2022-08-19T11:23:16.344Z,15.60
2022-08-19T11:26:11.332Z,15.50
2022-08-19T11:29:08.550Z,15.60
2022-08-19T11:32:03.706Z,15.60
2022-08-19T11:34:58.294Z,15.60
2022-08-19T11:37:52.835Z,15.60
2022-08-19T11:40:47.593Z,15.60
2022-08-19T11:43:42.187Z,15.60
2022-08-19T11:46:38.708Z,15.60
2022-08-19T11:49:33.200Z,15.70
2022-08-19T11:52:27.861Z,15.70
2022-08-19T11:55:22.392Z,15.60
2022-08-19T11:58:19.388Z,15.60
2022-08-19T12:01:20.086Z,15.60
2022-08-19T12:04:14.774Z,15.50
2022-08-19T12:07:09.404Z,15.50
2022-08-19T12:10:04.512Z,15.50
2022-08-19T12:12:59.503Z,15.50
2022-08-19T12:15:55.516Z,15.50
2022-08-19T12:18:50.830Z,15.50
2022-08-19T12:21:45.447Z,15.50
2022-08-19T12:24:40.001Z,15.50
2022-08-19T12:27:40.126Z,15.50
2022-08-19T12:30:36.025Z,15.60
2022-08-19T12:33:30.909Z,15.60
2022-08-19T12:36:26.260Z,15.60
2022-08-19T12:39:20.989Z,15.60
2022-08-19T12:42:17.216Z,15.60
2022-08-19T12:45:16.989Z,15.70
2022-08-19T12:48:33.859Z,15.70
2022-08-19T12:51:29.307Z,15.70
2022-08-19T12:54:23.793Z,15.70
2022-08-19T12:57:18.290Z,15.70
2022-08-19T13:00:16.052Z,15.70
2022-08-19T13:03:10.620Z,15.60
2022-08-19T13:06:05.240Z,15.60
2022-08-19T13:08:59.896Z,15.60
2022-08-19T13:11:54.356Z,15.60
2022-08-19T13:14:52.170Z,15.70
2022-08-19T13:17:46.680Z,15.60
2022-08-19T13:20:52.635Z,15.60
2022-08-19T13:23:47.584Z,15.60
2022-08-19T13:26:42.120Z,15.50
2022-08-19T13:29:54.771Z,15.50
2022-08-19T13:33:07.524Z,15.40
2022-08-19T13:36:03.157Z,15.40
2022-08-19T13:38:58.773Z,15.40
2022-08-19T13:41:53.692Z,15.50
2022-08-19T13:44:49.969Z,15.50
2022-08-19T13:47:46.554Z,15.50
2022-08-19T13:50:49.042Z,15.50
2022-08-19T13:53:47.912Z,15.50
2022-08-19T13:56:48.620Z,15.50
2022-08-19T13:59:43.169Z,15.50
2022-08-19T14:02:37.728Z,15.50
2022-08-19T14:05:33.581Z,15.60
2022-08-19T14:08:30.137Z,15.50
2022-08-19T14:11:25.140Z,15.50
2022-08-19T14:14:19.929Z,15.50
2022-08-19T14:17:14.497Z,15.40
2022-08-19T14:20:17.619Z,15.50
2022-08-19T14:23:14.927Z,15.40
2022-08-19T14:26:14.015Z,15.50
2022-08-19T14:29:08.536Z,15.50
2022-08-19T14:32:03.092Z,15.50
2022-08-19T14:34:57.606Z,15.60
2022-08-19T14:37:57.686Z,15.50
2022-08-19T14:40:54.091Z,15.50
2022-08-19T14:43:54.332Z,15.50
2022-08-19T14:46:49.390Z,15.50
2022-08-19T14:49:48.345Z,15.50
2022-08-19T14:52:43.103Z,15.50
2022-08-19T14:55:38.215Z,15.50
2022-08-19T14:58:36.388Z,15.50
2022-08-19T15:01:33.257Z,15.50
2022-08-19T15:04:31.955Z,15.50
2022-08-19T15:07:29.074Z,15.50
2022-08-19T15:10:25.579Z,15.50
2022-08-19T15:13:20.459Z,15.40
2022-08-19T15:16:17.923Z,15.40
2022-08-19T15:19:14.040Z,15.30
2022-08-19T15:22:08.838Z,15.40
2022-08-19T15:25:03.692Z,15.40
2022-08-19T15:27:58.691Z,15.40
2022-08-19T15:30:53.552Z,15.50
2022-08-19T15:33:48.446Z,15.50
2022-08-19T15:36:43.121Z,15.50
2022-08-19T15:39:37.727Z,15.50
2022-08-19T15:42:32.378Z,15.50
2022-08-19T15:45:33.749Z,15.50
2022-08-19T15:48:28.328Z,15.40
2022-08-19T15:51:23.699Z,15.40
2022-08-19T15:54:22.623Z,15.40
2022-08-19T15:57:22.895Z,15.40
2022-08-19T16:00:35.427Z,15.40
2022-08-19T16:03:48.521Z,15.50
2022-08-19T16:06:48.039Z,15.50
2022-08-19T16:09:42.586Z,15.40
2022-08-19T16:12:37.588Z,15.40
2022-08-19T16:15:32.805Z,15.40
2022-08-19T16:18:27.798Z,15.50
2022-08-19T16:21:23.855Z,15.50
2022-08-19T16:24:20.457Z,15.40
2022-08-19T16:27:15.012Z,15.40
2022-08-19T16:30:10.648Z,15.50
2022-08-19T16:33:05.145Z,15.50
2022-08-19T16:36:07.631Z,15.50
2022-08-19T16:39:04.330Z,15.50
2022-08-19T16:41:59.282Z,15.60
2022-08-19T16:44:53.859Z,15.50
2022-08-19T16:47:48.658Z,15.50
2022-08-19T16:50:49.574Z,15.50
2022-08-19T16:53:46.622Z,15.50
2022-08-19T16:56:41.295Z,15.60
2022-08-19T16:59:37.017Z,15.60
2022-08-19T17:02:37.990Z,15.60
2022-08-19T17:05:32.704Z,15.60
2022-08-19T17:08:28.686Z,15.60
2022-08-19T17:11:25.422Z,15.60
2022-08-19T17:14:20.693Z,15.60
2022-08-19T17:17:15.927Z,15.50
2022-08-19T17:20:11.664Z,15.60
2022-08-19T17:23:08.458Z,15.50
2022-08-19T17:26:06.626Z,15.50
2022-08-19T17:29:08.795Z,15.60
2022-08-19T17:32:03.311Z,15.60
2022-08-19T17:34:58.436Z,15.50
2022-08-19T17:37:53.276Z,15.60
2022-08-19T17:40:48.743Z,15.60
2022-08-19T17:43:44.280Z,15.60
2022-08-19T17:46:39.064Z,15.60
2022-08-19T17:49:34.675Z,15.60
2022-08-19T17:52:29.387Z,15.50
2022-08-19T17:55:24.713Z,15.50
2022-08-19T17:58:20.751Z,15.50
2022-08-19T18:01:18.498Z,15.50
2022-08-19T18:04:17.431Z,15.50
2022-08-19T18:07:12.102Z,15.50
2022-08-19T18:10:07.024Z,15.40
2022-08-19T18:13:02.211Z,15.50
2022-08-19T18:16:15.353Z,15.50
2022-08-19T18:19:10.284Z,15.60
2022-08-19T18:22:05.685Z,15.60
2022-08-19T18:25:00.836Z,15.50
2022-08-19T18:28:00.950Z,15.50
2022-08-19T18:30:55.417Z,15.50
2022-08-19T18:33:53.817Z,15.50
2022-08-19T18:36:53.672Z,15.50
2022-08-19T18:40:06.672Z,15.50
2022-08-19T18:43:19.212Z,15.60
2022-08-19T18:46:34.937Z,15.60
2022-08-19T18:49:34.076Z,15.50
2022-08-19T18:52:29.478Z,15.50
2022-08-19T18:55:24.784Z,15.50
2022-08-19T18:58:20.782Z,15.50
2022-08-19T19:01:26.880Z,15.50
2022-08-19T19:04:25.440Z,15.60
2022-08-19T19:07:20.152Z,15.50
2022-08-19T19:10:15.644Z,15.60
2022-08-19T19:13:10.188Z,15.60
2022-08-19T19:16:06.447Z,15.50
2022-08-19T19:19:01.465Z,15.50
2022-08-19T19:21:56.618Z,15.50
2022-08-19T19:24:52.095Z,15.50
2022-08-19T19:27:46.652Z,15.60
2022-08-19T19:30:41.630Z,15.60
2022-08-19T19:33:36.125Z,15.50
2022-08-19T19:36:30.631Z,15.50
2022-08-19T19:39:45.188Z,15.50
2022-08-19T19:42:39.754Z,15.50
2022-08-19T19:45:34.821Z,15.50
2022-08-19T19:48:30.045Z,15.50
2022-08-19T19:51:25.482Z,15.50
2022-08-19T19:54:23.622Z,15.50
2022-08-19T19:57:18.237Z,15.60
2022-08-19T20:00:14.654Z,15.60
2022-08-19T20:03:09.335Z,15.60
2022-08-19T20:06:03.793Z,15.60
2022-08-19T20:09:17.584Z,15.60
2022-08-19T20:12:13.892Z,15.60
2022-08-19T20:15:10.636Z,15.60
2022-08-19T20:18:06.012Z,15.60
2022-08-19T20:21:02.086Z,15.60
2022-08-19T20:24:09.172Z,15.60
2022-08-19T20:27:06.089Z,15.60
2022-08-19T20:30:04.510Z,15.70
2022-08-19T20:33:00.167Z,15.70
2022-08-19T20:35:54.862Z,15.70
2022-08-19T20:38:49.353Z,15.70
2022-08-19T20:41:44.420Z,15.70
2022-08-19T20:44:39.066Z,15.80
2022-08-19T20:47:33.932Z,15.80
2022-08-19T20:50:29.926Z,15.80
2022-08-19T20:53:25.867Z,15.70
2022-08-19T20:56:20.615Z,15.70
2022-08-19T20:59:15.369Z,15.60
2022-08-19T21:02:10.670Z,15.60
2022-08-19T21:05:05.565Z,15.60
2022-08-19T21:08:00.334Z,15.60
2022-08-19T21:10:56.817Z,15.50
2022-08-19T21:13:51.368Z,15.50
2022-08-19T21:16:45.896Z,15.50
2022-08-19T21:19:40.584Z,15.50
2022-08-19T21:22:35.273Z,15.60
2022-08-19T21:25:30.383Z,15.60
2022-08-19T21:28:34.389Z,15.60
2022-08-19T21:31:30.882Z,15.60
2022-08-19T21:34:25.383Z,15.70
2022-08-19T21:37:25.518Z,15.70
2022-08-19T21:40:21.170Z,15.80
2022-08-19T21:43:15.856Z,15.80
2022-08-19T21:46:11.000Z,15.80
2022-08-19T21:49:06.571Z,15.80
2022-08-19T21:52:01.089Z,15.80
2022-08-19T21:54:56.612Z,15.80
2022-08-19T21:57:51.209Z,15.90
2022-08-19T22:00:45.850Z,15.90
2022-08-19T22:03:41.027Z,16.00
2022-08-19T22:06:35.616Z,15.90
2022-08-19T22:09:30.495Z,15.90
2022-08-19T22:12:31.772Z,15.90
2022-08-19T22:15:30.995Z,15.90
2022-08-19T22:18:25.816Z,15.80
2022-08-19T22:21:39.778Z,15.60
2022-08-19T22:24:35.738Z,15.60
2022-08-19T22:27:30.624Z,15.60
2022-08-19T22:30:26.880Z,15.70
2022-08-19T22:33:29.858Z,15.80
2022-08-19T22:36:24.358Z,15.80
2022-08-19T22:39:18.898Z,15.70
2022-08-19T22:42:13.400Z,15.80
2022-08-19T22:45:10.362Z,15.80
2022-08-19T22:48:09.174Z,15.90
2022-08-19T22:51:21.702Z,15.90
2022-08-19T22:54:16.836Z,16.10
2022-08-19T22:57:12.660Z,16.20
2022-08-19T23:00:12.176Z,16.40
2022-08-19T23:03:07.714Z,17.00
2022-08-19T23:06:02.664Z,17.80
2022-08-19T23:08:58.511Z,18.20
2022-08-19T23:11:53.087Z,18.10
2022-08-19T23:14:47.552Z,18.00
2022-08-19T23:17:42.760Z,17.80
2022-08-19T23:20:39.893Z,18.60
2022-08-19T23:23:34.471Z,20.10
2022-08-19T23:26:35.868Z,20.00
2022-08-19T23:29:48.667Z,19.80
2022-08-19T23:32:43.277Z,19.90
2022-08-19T23:35:39.875Z,19.90
2022-08-19T23:38:34.448Z,19.70
2022-08-19T23:41:29.417Z,19.30
2022-08-19T23:44:24.119Z,19.00
2022-08-19T23:47:20.162Z,18.70
2022-08-19T23:50:15.540Z,18.40
2022-08-19T23:53:13.377Z,18.20
2022-08-19T23:56:09.727Z,17.90
2022-08-19T23:59:04.258Z,17.70
